Concordia, Kansas
Current Conditions -  °F | °C
As of 11:55 AM on Wednesday 28 Jan 2015 (Local Time) from KCNK Reporting Station
Clear Clear  
Wind Chill: 56°   Ceiling: Unl
Heat Index: 56°   Visibility: 10mi
Dew Point: 35°   Wind: 15mph
Humidity: 45%   Direction: 280°W
Pressure: 29.77"   Gusts: NA
Location:  39.57°N, 97.66°W
Report Text: KCNK 281755Z AUTO 28013KT 10SM CLR 13/02 A2977 RMK AO2 SLP081 T01330017 10133 20033 56016
Loading
Personal Weather Stations






























Interactive Weather Map New forecast layout! Learn more

10-Day Weather Forecast

Advertisements
Track Severe Weather on mobile